createdAt,value
2023-01-30T00:00:51.233Z,99.90
2023-01-30T00:02:52.973Z,99.90
2023-01-30T00:04:55.085Z,99.90
2023-01-30T00:06:56.949Z,99.90
2023-01-30T00:08:58.807Z,99.90
2023-01-30T00:11:08.840Z,99.90
2023-01-30T00:13:10.957Z,99.90
2023-01-30T00:15:12.747Z,99.90
2023-01-30T00:17:14.511Z,99.90
2023-01-30T00:19:16.160Z,99.90
2023-01-30T00:21:18.202Z,99.90
2023-01-30T00:23:19.964Z,99.90
2023-01-30T00:25:21.956Z,99.90
2023-01-30T00:27:23.844Z,99.90
2023-01-30T00:29:25.596Z,99.90
2023-01-30T00:31:27.350Z,99.90
2023-01-30T00:33:29.731Z,99.90
2023-01-30T00:35:31.495Z,99.90
2023-01-30T00:37:33.283Z,99.90
2023-01-30T00:39:35.026Z,99.90
2023-01-30T00:41:55.575Z,99.90
2023-01-30T00:44:15.788Z,99.90
2023-01-30T00:46:51.017Z,99.90
2023-01-30T00:48:52.883Z,99.90
2023-01-30T00:50:54.943Z,99.90
2023-01-30T00:52:56.913Z,99.90
2023-01-30T00:54:58.591Z,99.90
2023-01-30T00:57:00.769Z,99.90
2023-01-30T00:59:02.695Z,99.90
2023-01-30T01:01:04.985Z,99.90
2023-01-30T01:03:06.831Z,99.90
2023-01-30T01:05:09.060Z,99.90
2023-01-30T01:07:12.419Z,99.90
2023-01-30T01:09:14.180Z,99.90
2023-01-30T01:11:24.302Z,99.90
2023-01-30T01:13:26.427Z,99.90
2023-01-30T01:15:28.200Z,99.90
2023-01-30T01:17:30.029Z,99.90
2023-01-30T01:19:31.923Z,99.90
2023-01-30T01:21:33.918Z,99.90
2023-01-30T01:23:35.727Z,99.90
2023-01-30T01:25:37.437Z,99.90
2023-01-30T01:27:39.180Z,99.90
2023-01-30T01:29:41.027Z,99.90
2023-01-30T01:31:44.724Z,99.90
2023-01-30T01:33:46.794Z,99.90
2023-01-30T01:35:48.616Z,99.90
2023-01-30T01:37:54.910Z,99.90
2023-01-30T01:40:15.229Z,99.90
2023-01-30T01:42:18.684Z,99.90
2023-01-30T01:44:20.480Z,99.90
2023-01-30T01:46:25.341Z,99.90
2023-01-30T01:48:49.167Z,99.90
2023-01-30T01:51:01.238Z,99.90
2023-01-30T01:53:03.121Z,99.90
2023-01-30T01:55:07.484Z,99.90
2023-01-30T01:57:16.145Z,99.90
2023-01-30T01:59:23.931Z,99.90
2023-01-30T02:01:26.079Z,99.90
2023-01-30T02:03:35.200Z,99.90
2023-01-30T02:05:45.982Z,99.90
2023-01-30T02:08:07.331Z,99.90
2023-01-30T02:10:15.500Z,99.90
2023-01-30T02:12:17.478Z,99.90
2023-01-30T02:14:21.278Z,99.90
2023-01-30T02:16:23.093Z,99.90
2023-01-30T02:18:25.686Z,99.90
2023-01-30T02:20:49.213Z,99.90
2023-01-30T02:23:22.577Z,99.90
2023-01-30T02:25:51.742Z,99.90
2023-01-30T02:28:36.147Z,99.90
2023-01-30T02:31:11.223Z,99.90
2023-01-30T02:33:15.731Z,99.90
2023-01-30T02:35:31.945Z,99.90
2023-01-30T02:38:00.667Z,99.90
2023-01-30T02:40:32.586Z,99.90
2023-01-30T02:43:22.076Z,99.90
2023-01-30T02:45:31.667Z,99.90
2023-01-30T02:47:52.711Z,99.90
2023-01-30T02:50:02.349Z,99.90
2023-01-30T02:52:06.854Z,99.90
2023-01-30T02:54:11.880Z,99.90
2023-01-30T02:56:13.793Z,99.90
2023-01-30T02:58:19.523Z,99.90
2023-01-30T03:00:32.941Z,99.90
2023-01-30T03:03:09.974Z,99.90
2023-01-30T03:05:23.567Z,99.90
2023-01-30T03:07:45.817Z,99.90
2023-01-30T03:10:07.468Z,99.90
2023-01-30T03:12:23.438Z,99.90
2023-01-30T03:14:29.660Z,99.90
2023-01-30T03:16:38.547Z,99.90
2023-01-30T03:18:44.863Z,99.90
2023-01-30T03:20:47.313Z,99.90
2023-01-30T03:22:49.170Z,99.90
2023-01-30T03:24:53.457Z,99.90
2023-01-30T03:27:00.743Z,99.90
2023-01-30T03:29:02.779Z,99.90
2023-01-30T03:31:04.893Z,99.90
2023-01-30T03:33:06.680Z,99.90
2023-01-30T03:35:09.408Z,99.90
2023-01-30T03:37:11.157Z,99.90
2023-01-30T03:39:12.897Z,99.90
2023-01-30T03:41:14.783Z,99.90
2023-01-30T03:43:16.641Z,99.90
2023-01-30T03:45:18.922Z,99.90
2023-01-30T03:47:20.801Z,99.90
2023-01-30T03:49:22.517Z,99.90
2023-01-30T03:51:24.344Z,99.90
2023-01-30T03:53:26.299Z,99.90
2023-01-30T03:55:28.059Z,99.90
2023-01-30T03:57:29.932Z,99.90
2023-01-30T03:59:31.621Z,99.90
2023-01-30T04:01:33.420Z,99.90
2023-01-30T04:03:35.128Z,99.90
2023-01-30T04:05:36.883Z,99.90
2023-01-30T04:07:38.553Z,99.90
2023-01-30T04:09:40.375Z,99.90
2023-01-30T04:11:42.190Z,99.90
2023-01-30T04:13:43.845Z,99.90
2023-01-30T04:15:45.696Z,99.90
2023-01-30T04:17:47.978Z,99.90
2023-01-30T04:19:49.634Z,99.90
2023-01-30T04:21:51.358Z,99.90
2023-01-30T04:23:53.053Z,99.90
2023-01-30T04:25:54.806Z,99.90
2023-01-30T04:27:56.644Z,99.90
2023-01-30T04:29:58.560Z,99.90
2023-01-30T04:32:00.344Z,99.90
2023-01-30T04:34:02.358Z,99.90
2023-01-30T04:36:04.963Z,99.90
2023-01-30T04:38:06.826Z,99.90
2023-01-30T04:40:09.502Z,99.90
2023-01-30T04:42:11.337Z,99.90
2023-01-30T04:44:13.026Z,99.90
2023-01-30T04:46:14.815Z,99.90
2023-01-30T04:48:17.534Z,99.90
2023-01-30T04:50:19.354Z,99.90
2023-01-30T04:52:21.077Z,91.80
2023-01-30T04:54:22.797Z,95.80
2023-01-30T04:56:24.558Z,97.90
2023-01-30T04:58:26.342Z,74.70
2023-01-30T05:00:28.738Z,62.60
2023-01-30T05:02:31.589Z,66.70
2023-01-30T05:04:33.588Z,59.00
2023-01-30T05:06:36.727Z,58.00
2023-01-30T05:08:38.469Z,57.20
2023-01-30T05:10:40.264Z,76.80
2023-01-30T05:12:41.928Z,51.00
2023-01-30T05:14:43.730Z,41.00
2023-01-30T05:16:45.481Z,54.00
2023-01-30T05:18:47.552Z,74.30
2023-01-30T05:20:50.492Z,72.20
2023-01-30T05:22:52.177Z,71.60
2023-01-30T05:24:53.965Z,56.80
2023-01-30T05:26:55.933Z,38.10
2023-01-30T05:28:58.477Z,34.00
2023-01-30T05:31:12.843Z,42.10
2023-01-30T05:33:14.758Z,37.90
2023-01-30T05:35:16.904Z,33.70
2023-01-30T05:37:18.797Z,28.60
2023-01-30T05:39:20.540Z,25.90
2023-01-30T05:41:22.179Z,26.70
2023-01-30T05:43:23.846Z,27.60
2023-01-30T05:45:25.565Z,18.20
2023-01-30T05:47:27.533Z,18.40
2023-01-30T05:49:29.311Z,30.10
2023-01-30T05:51:31.059Z,29.30
2023-01-30T05:53:37.279Z,15.60
2023-01-30T05:55:39.062Z,19.00
2023-01-30T05:57:40.990Z,21.20
2023-01-30T05:59:42.861Z,25.90
2023-01-30T06:01:44.906Z,38.90
2023-01-30T06:03:47.133Z,37.60
2023-01-30T06:05:49.190Z,24.70
2023-01-30T06:07:51.010Z,27.10
2023-01-30T06:09:53.000Z,30.60
2023-01-30T06:11:55.823Z,29.50
2023-01-30T06:13:57.842Z,24.00
2023-01-30T06:15:59.762Z,40.40
2023-01-30T06:18:01.451Z,35.90
2023-01-30T06:20:04.144Z,27.60
2023-01-30T06:22:05.939Z,19.80
2023-01-30T06:24:07.762Z,12.60
2023-01-30T06:26:09.866Z,12.40
2023-01-30T06:28:12.409Z,4.00
2023-01-30T06:30:14.623Z,18.80
2023-01-30T06:32:16.349Z,14.30
2023-01-30T06:34:18.161Z,1.00
2023-01-30T06:36:19.880Z,1.00
2023-01-30T06:38:21.540Z,1.00
2023-01-30T06:40:23.395Z,1.00
2023-01-30T06:42:25.128Z,1.00
2023-01-30T06:44:27.031Z,1.00
2023-01-30T06:46:28.818Z,1.00
2023-01-30T06:48:30.796Z,1.00
2023-01-30T06:50:32.898Z,1.00
2023-01-30T06:52:34.859Z,1.00
2023-01-30T06:54:36.489Z,1.00
2023-01-30T06:56:38.263Z,1.00
2023-01-30T06:58:39.995Z,1.00
2023-01-30T07:00:43.057Z,1.00
2023-01-30T07:02:45.690Z,1.00
2023-01-30T07:04:47.426Z,1.00
2023-01-30T07:06:50.043Z,1.00
2023-01-30T07:08:51.803Z,1.00
2023-01-30T07:10:53.448Z,1.00
2023-01-30T07:12:55.310Z,1.00
2023-01-30T07:14:57.312Z,1.00
2023-01-30T07:16:59.212Z,1.00
2023-01-30T07:19:00.966Z,1.00
2023-01-30T07:21:02.896Z,1.00
2023-01-30T07:23:04.847Z,1.00
2023-01-30T07:25:07.063Z,1.00
2023-01-30T07:27:13.434Z,1.00
2023-01-30T07:29:15.121Z,1.00
2023-01-30T07:31:17.118Z,1.00
2023-01-30T07:33:19.437Z,1.00
2023-01-30T07:35:22.992Z,1.00
2023-01-30T07:37:25.022Z,1.00
2023-01-30T07:39:26.708Z,1.00
2023-01-30T07:41:28.530Z,1.00
2023-01-30T07:43:30.545Z,1.00
2023-01-30T07:45:38.168Z,1.00
2023-01-30T07:47:39.940Z,1.00
2023-01-30T07:49:41.684Z,1.00
2023-01-30T07:51:43.351Z,1.00
2023-01-30T07:53:45.103Z,1.00
2023-01-30T07:55:46.861Z,1.00
2023-01-30T07:57:48.545Z,1.00
2023-01-30T07:59:50.336Z,1.00
2023-01-30T08:01:52.049Z,1.00
2023-01-30T08:03:53.737Z,1.00
2023-01-30T08:05:55.659Z,1.00
2023-01-30T08:07:57.624Z,1.00
2023-01-30T08:09:59.350Z,1.00
2023-01-30T08:12:01.262Z,1.00
2023-01-30T08:14:03.637Z,1.00
2023-01-30T08:16:07.057Z,1.00
2023-01-30T08:18:08.790Z,1.00
2023-01-30T08:20:11.403Z,1.00
2023-01-30T08:22:13.644Z,1.00
2023-01-30T08:24:15.718Z,1.00
2023-01-30T08:26:17.469Z,1.00
2023-01-30T08:28:19.130Z,17.10
2023-01-30T08:30:22.428Z,19.20
2023-01-30T08:32:24.444Z,51.20
2023-01-30T08:34:26.984Z,57.90
2023-01-30T08:36:28.725Z,91.20
2023-01-30T08:38:30.475Z,78.10
2023-01-30T08:40:32.167Z,97.20
2023-01-30T08:42:33.841Z,98.70
2023-01-30T08:44:35.624Z,93.10
2023-01-30T08:46:40.738Z,99.90
2023-01-30T08:48:49.866Z,93.30
2023-01-30T08:50:53.620Z,99.90
2023-01-30T08:52:55.569Z,91.50
2023-01-30T08:54:58.789Z,92.60
2023-01-30T08:57:00.509Z,71.30
2023-01-30T08:59:02.512Z,56.20
2023-01-30T09:01:07.714Z,53.20
2023-01-30T09:03:09.454Z,50.40
2023-01-30T09:05:11.243Z,53.90
2023-01-30T09:07:13.131Z,48.60
2023-01-30T09:09:14.786Z,44.70
2023-01-30T09:11:16.521Z,58.40
2023-01-30T09:13:18.290Z,33.10
2023-01-30T09:15:20.070Z,39.90
2023-01-30T09:17:22.277Z,17.30
2023-01-30T09:19:26.034Z,4.30
2023-01-30T09:21:28.604Z,6.80
2023-01-30T09:23:30.629Z,1.00
2023-01-30T09:25:32.496Z,1.00
2023-01-30T09:27:34.252Z,1.00
2023-01-30T09:29:36.269Z,1.00
2023-01-30T09:31:38.838Z,1.00
2023-01-30T09:33:40.603Z,1.00
2023-01-30T09:35:42.859Z,1.00
2023-01-30T09:37:52.076Z,1.00
2023-01-30T09:39:53.749Z,1.00
2023-01-30T09:42:22.006Z,1.00
2023-01-30T09:44:45.156Z,1.00
2023-01-30T09:47:32.766Z,1.00
2023-01-30T09:49:34.458Z,1.00
2023-01-30T09:51:48.217Z,1.00
2023-01-30T09:53:55.910Z,1.00
2023-01-30T09:55:59.523Z,1.00
2023-01-30T09:58:01.574Z,1.00
2023-01-30T10:00:13.957Z,1.00
2023-01-30T10:03:04.997Z,1.00
2023-01-30T10:05:07.211Z,1.00
2023-01-30T10:07:09.142Z,1.00
2023-01-30T10:09:39.083Z,1.00
2023-01-30T10:11:40.903Z,1.00
2023-01-30T10:14:03.648Z,1.00
2023-01-30T10:16:14.108Z,1.00
2023-01-30T10:18:31.211Z,1.00
2023-01-30T10:21:07.284Z,1.00
2023-01-30T10:23:41.315Z,1.00
2023-01-30T10:25:47.306Z,1.00
2023-01-30T10:28:01.605Z,1.00
2023-01-30T10:30:06.619Z,1.00
2023-01-30T10:32:11.386Z,1.00
2023-01-30T10:34:31.772Z,1.00
2023-01-30T10:36:36.454Z,1.00
2023-01-30T10:38:50.000Z,1.00
2023-01-30T10:41:10.730Z,1.00
2023-01-30T10:43:28.140Z,1.00
2023-01-30T10:45:58.530Z,1.00
2023-01-30T10:48:43.283Z,17.10
2023-01-30T10:50:55.255Z,15.90
2023-01-30T10:53:14.629Z,21.20
2023-01-30T10:55:38.478Z,18.70
2023-01-30T10:57:46.040Z,22.80
2023-01-30T11:00:07.894Z,11.30
2023-01-30T11:02:25.574Z,20.30
2023-01-30T11:04:47.322Z,10.70
2023-01-30T11:06:49.415Z,18.30
2023-01-30T11:08:52.675Z,25.30
2023-01-30T11:10:56.266Z,30.00
2023-01-30T11:13:07.285Z,42.20
2023-01-30T11:15:09.622Z,57.30
2023-01-30T11:17:18.382Z,90.10
2023-01-30T11:19:25.594Z,99.90
2023-01-30T11:21:42.392Z,99.90
2023-01-30T11:23:45.899Z,99.90
2023-01-30T11:26:09.419Z,99.90
2023-01-30T11:28:14.973Z,99.90
2023-01-30T11:30:19.802Z,99.90
2023-01-30T11:32:27.702Z,99.90
2023-01-30T11:34:29.744Z,99.90
2023-01-30T11:36:33.702Z,99.90
2023-01-30T11:38:38.817Z,99.90
2023-01-30T11:40:41.576Z,99.90
2023-01-30T11:42:48.950Z,99.90
2023-01-30T11:45:15.634Z,99.90
2023-01-30T11:47:27.230Z,99.90
2023-01-30T11:49:47.808Z,99.90
2023-01-30T11:52:00.592Z,99.90
2023-01-30T11:54:06.949Z,99.90
2023-01-30T11:56:21.398Z,99.90
2023-01-30T11:58:23.342Z,99.90
2023-01-30T12:00:39.939Z,99.90
2023-01-30T12:02:44.535Z,99.90
2023-01-30T12:04:48.211Z,99.90
2023-01-30T12:07:06.056Z,99.90
2023-01-30T12:09:27.861Z,99.90
2023-01-30T12:11:49.863Z,99.90
2023-01-30T12:13:54.109Z,99.90
2023-01-30T12:16:14.356Z,99.90
2023-01-30T12:18:35.779Z,99.90
2023-01-30T12:20:46.409Z,99.90
2023-01-30T12:23:06.349Z,99.90
2023-01-30T12:25:19.030Z,99.90
2023-01-30T12:27:48.996Z,99.90
2023-01-30T12:30:23.439Z,99.90
2023-01-30T12:32:29.092Z,99.90
2023-01-30T12:34:30.883Z,99.90
2023-01-30T12:36:53.844Z,99.90
2023-01-30T12:39:16.782Z,99.90
2023-01-30T12:41:24.346Z,99.90
2023-01-30T12:43:51.133Z,99.90
2023-01-30T12:46:11.743Z,99.90
2023-01-30T12:48:13.418Z,99.90
2023-01-30T12:50:52.796Z,99.90
2023-01-30T12:53:05.096Z,99.90
2023-01-30T12:55:39.639Z,99.90
2023-01-30T12:58:02.628Z,99.90
2023-01-30T13:00:25.435Z,99.90
2023-01-30T13:02:30.059Z,99.90
2023-01-30T13:05:06.512Z,99.90
2023-01-30T13:07:26.709Z,99.90
2023-01-30T13:09:46.226Z,99.90
2023-01-30T13:12:09.319Z,99.90
2023-01-30T13:14:22.728Z,99.90
2023-01-30T13:16:33.769Z,99.90
2023-01-30T13:18:56.129Z,99.90
2023-01-30T13:21:18.027Z,99.90
2023-01-30T13:23:53.340Z,99.90
2023-01-30T13:26:03.059Z,99.90
2023-01-30T13:28:14.176Z,99.90
2023-01-30T13:30:18.104Z,99.90
2023-01-30T13:32:42.753Z,99.90
2023-01-30T13:34:47.994Z,99.90
2023-01-30T13:36:52.207Z,99.90
2023-01-30T13:38:59.997Z,99.90
2023-01-30T13:41:04.175Z,99.90
2023-01-30T13:43:31.815Z,99.90
2023-01-30T13:45:36.725Z,99.90
2023-01-30T13:47:41.310Z,99.90
2023-01-30T13:50:15.745Z,99.90
2023-01-30T13:52:59.973Z,99.90
2023-01-30T13:55:43.858Z,99.90
2023-01-30T13:58:01.614Z,99.90
2023-01-30T14:00:29.825Z,99.90
2023-01-30T14:02:31.576Z,99.90
2023-01-30T14:04:36.844Z,99.90
2023-01-30T14:06:39.479Z,99.90
2023-01-30T14:08:47.395Z,99.90
2023-01-30T14:10:49.868Z,99.90
2023-01-30T14:12:53.983Z,99.90
2023-01-30T14:15:14.543Z,99.90
2023-01-30T14:17:17.313Z,99.90
2023-01-30T14:19:36.731Z,99.90
2023-01-30T14:21:40.160Z,99.90
2023-01-30T14:23:54.553Z,99.90
2023-01-30T14:25:56.707Z,99.90
2023-01-30T14:27:58.441Z,99.90
2023-01-30T14:30:00.692Z,99.90
2023-01-30T14:32:02.572Z,99.90
2023-01-30T14:34:48.089Z,99.90
2023-01-30T14:36:52.447Z,99.90
2023-01-30T14:39:52.688Z,99.90
2023-01-30T14:42:32.337Z,99.90
2023-01-30T14:45:00.645Z,99.90
2023-01-30T14:47:02.345Z,99.90
2023-01-30T14:49:27.779Z,99.90
2023-01-30T14:51:47.861Z,99.90
2023-01-30T14:54:10.838Z,99.90
2023-01-30T14:56:12.534Z,99.90
2023-01-30T14:58:18.481Z,99.90
2023-01-30T15:00:26.201Z,99.90
2023-01-30T15:02:32.143Z,99.90
2023-01-30T15:04:48.338Z,99.90
2023-01-30T15:06:50.398Z,99.90
2023-01-30T15:08:52.780Z,99.90
2023-01-30T15:11:04.438Z,99.90
2023-01-30T15:13:24.796Z,99.90
2023-01-30T15:15:46.750Z,99.90
2023-01-30T15:18:07.215Z,99.90
2023-01-30T15:20:17.059Z,99.90
2023-01-30T15:22:28.773Z,99.90
2023-01-30T15:24:56.983Z,99.90
2023-01-30T15:27:05.559Z,99.90
2023-01-30T15:29:41.082Z,99.90
2023-01-30T15:31:55.448Z,99.90
2023-01-30T15:33:57.529Z,99.90
2023-01-30T15:36:00.460Z,99.90
2023-01-30T15:38:02.208Z,99.90
2023-01-30T15:40:18.089Z,99.90
2023-01-30T15:42:20.169Z,99.90
2023-01-30T15:44:37.492Z,99.90
2023-01-30T15:46:51.596Z,99.90
2023-01-30T15:49:23.943Z,99.90
2023-01-30T15:51:30.941Z,99.90
2023-01-30T15:53:41.963Z,99.90
2023-01-30T15:55:44.748Z,99.90
2023-01-30T15:57:52.869Z,99.90
2023-01-30T15:59:55.848Z,99.90
2023-01-30T16:02:29.882Z,99.90
2023-01-30T16:04:32.256Z,99.90
2023-01-30T16:06:36.924Z,99.90
2023-01-30T16:08:38.758Z,99.90
2023-01-30T16:10:46.581Z,99.90
2023-01-30T16:12:50.580Z,99.90
2023-01-30T16:15:05.676Z,99.90
2023-01-30T16:17:14.448Z,99.90
2023-01-30T16:19:26.449Z,99.90
2023-01-30T16:21:37.013Z,99.90
2023-01-30T16:24:04.040Z,99.90
2023-01-30T16:26:09.601Z,99.90
2023-01-30T16:28:11.326Z,99.90
2023-01-30T16:30:13.349Z,99.90
2023-01-30T16:32:15.562Z,99.90
2023-01-30T16:34:33.265Z,99.90
2023-01-30T16:36:41.902Z,99.90
2023-01-30T16:38:45.570Z,99.90
2023-01-30T16:40:47.243Z,99.90
2023-01-30T16:43:00.986Z,99.90
2023-01-30T16:45:15.995Z,99.90
2023-01-30T16:47:29.159Z,99.90
2023-01-30T16:49:36.947Z,99.90
2023-01-30T16:51:38.755Z,99.90
2023-01-30T16:53:51.399Z,99.90
2023-01-30T16:55:58.848Z,99.90
2023-01-30T16:58:03.563Z,99.90
2023-01-30T17:00:10.385Z,99.90
2023-01-30T17:02:35.452Z,99.90
2023-01-30T17:04:41.321Z,99.90
2023-01-30T17:06:43.365Z,99.90
2023-01-30T17:08:52.305Z,99.90
2023-01-30T17:10:55.244Z,99.90
2023-01-30T17:12:57.853Z,99.90
2023-01-30T17:15:14.577Z,99.90
2023-01-30T17:17:16.866Z,99.90
2023-01-30T17:19:18.553Z,99.90
2023-01-30T17:21:22.431Z,99.90
2023-01-30T17:23:24.131Z,99.90
2023-01-30T17:25:44.896Z,99.90
2023-01-30T17:27:46.841Z,99.90
2023-01-30T17:29:49.276Z,99.90
2023-01-30T17:31:52.313Z,99.90
2023-01-30T17:33:54.233Z,99.90
2023-01-30T17:36:05.379Z,99.90
